Time;durP1;ratioP1;P1;durP2;ratioP2;P2;SDS_P1;SDS_P2;PMS_P1;PMS_P2;Temp;Humidity;BMP_temperature;BMP_pressure;BME280_temperature;BME280_humidity;BME280_pressure;Samples;Min_cycle;Max_cycle;Signal;HPM_P1;HPM_P2
2022/08/20 00:00:34;;;;;;;0.73;0.30;;;16.60;86.50;;;;;;4916106;29;20091;-74
2022/08/20 00:03:08;;;;;;;1.52;0.60;;;16.50;88.80;;;;;;4913841;29;20032;-77
2022/08/20 00:05:39;;;;;;;2.38;0.35;;;16.30;87.20;;;;;;4916307;29;20063;-76
2022/08/20 00:08:08;;;;;;;2.80;0.50;;;16.10;86.60;;;;;;4914126;29;20043;-73
2022/08/20 00:10:38;;;;;;;1.65;0.30;;;16.00;88.00;;;;;;4915401;29;20143;-76
2022/08/20 00:13:09;;;;;;;1.77;0.60;;;16.00;88.60;;;;;;4908992;29;20119;-77
2022/08/20 00:15:38;;;;;;;2.58;0.75;;;16.10;87.90;;;;;;4916157;29;20483;-75
2022/08/20 00:18:06;;;;;;;1.98;0.45;;;16.00;87.30;;;;;;4913994;29;20123;-75
2022/08/20 00:20:39;;;;;;;3.00;0.63;;;16.00;87.30;;;;;;4916159;29;20490;-76
2022/08/20 00:23:07;;;;;;;2.67;0.68;;;16.20;88.00;;;;;;4913715;29;20043;-75
2022/08/20 00:25:35;;;;;;;0.77;0.45;;;16.30;88.70;;;;;;4915719;29;20036;-76
2022/08/20 00:28:03;;;;;;;2.47;0.65;;;16.40;88.00;;;;;;4914761;29;20386;-77
2022/08/20 00:30:31;;;;;;;2.60;0.55;;;16.30;88.80;;;;;;4916490;29;20028;-76
2022/08/20 00:33:02;;;;;;;2.70;1.20;;;16.30;87.90;;;;;;4914442;29;20051;-76
2022/08/20 00:35:33;;;;;;;3.67;0.40;;;16.40;87.90;;;;;;4916443;29;20427;-77
2022/08/20 00:38:01;;;;;;;1.65;0.43;;;16.40;88.10;;;;;;4913195;29;20103;-77
2022/08/20 00:40:33;;;;;;;1.45;0.40;;;16.30;88.20;;;;;;4915852;29;20028;-77
2022/08/20 00:43:04;;;;;;;1.15;0.50;;;16.30;89.00;;;;;;4913476;29;20039;-76
2022/08/20 00:45:34;;;;;;;2.42;0.40;;;16.30;89.50;;;;;;4916548;29;20177;-76
2022/08/20 00:48:02;;;;;;;2.70;1.00;;;16.30;89.90;;;;;;4913019;29;20066;-76
2022/08/20 00:50:34;;;;;;;2.38;0.50;;;16.30;89.50;;;;;;4915332;29;20032;-76
2022/08/20 00:53:04;;;;;;;2.08;0.60;;;16.30;89.60;;;;;;4912577;29;20400;-76
2022/08/20 00:55:33;;;;;;;3.55;0.40;;;16.30;89.20;;;;;;4915212;29;20036;-75
2022/08/20 00:58:07;;;;;;;4.30;0.40;;;16.20;88.40;;;;;;4913115;29;20400;-77
2022/08/20 01:00:41;;;;;;;1.15;0.52;;;16.10;88.50;;;;;;4915322;29;20170;-76
2022/08/20 01:03:11;;;;;;;2.20;0.38;;;16.00;89.00;;;;;;4912048;29;20067;-76
2022/08/20 01:05:43;;;;;;;3.33;0.52;;;15.90;89.60;;;;;;4913887;29;20066;-75
2022/08/20 01:08:11;;;;;;;3.03;0.45;;;15.80;90.00;;;;;;4913438;29;20103;-76
2022/08/20 01:10:43;;;;;;;1.42;0.47;;;15.70;90.20;;;;;;4915247;29;20039;-78
2022/08/20 01:13:15;;;;;;;2.70;0.38;;;15.60;90.40;;;;;;4913833;29;20035;-76
2022/08/20 01:15:46;;;;;;;1.42;0.40;;;15.50;90.30;;;;;;4915075;29;20047;-76
2022/08/20 01:18:17;;;;;;;1.02;0.30;;;15.40;90.50;;;;;;4909415;29;20127;-76
2022/08/20 01:20:49;;;;;;;2.20;0.32;;;15.40;90.00;;;;;;4933658;29;20028;-77
2022/08/20 01:23:42;;;;;;;2.42;0.40;;;15.40;90.10;;;;;;4916132;29;20044;-76
2022/08/20 01:26:16;;;;;;;1.60;0.30;;;15.40;89.80;;;;;;4915114;29;20035;-75
2022/08/20 01:28:58;;;;;;;2.38;0.43;;;15.30;89.80;;;;;;4897040;29;20044;-77
2022/08/20 01:31:32;;;;;;;3.05;0.40;;;15.20;90.40;;;;;;4895742;29;20436;-77
2022/08/20 01:34:01;;;;;;;1.30;0.50;;;15.20;90.60;;;;;;4899287;29;20036;-76
2022/08/20 01:36:38;;;;;;;1.55;0.70;;;15.10;91.10;;;;;;4913311;29;20031;-76
2022/08/20 01:39:09;;;;;;;2.03;0.45;;;15.00;91.50;;;;;;4896113;29;20088;-77
2022/08/20 01:41:42;;;;;;;1.88;0.45;;;15.00;92.10;;;;;;4896853;29;20056;-77
2022/08/20 01:44:11;;;;;;;1.65;0.60;;;15.00;92.50;;;;;;4914933;29;20040;-76
2022/08/20 01:46:41;;;;;;;1.80;0.70;;;15.00;92.20;;;;;;4894871;29;20376;-77
2022/08/20 01:49:22;;;;;;;3.88;0.75;;;15.00;92.00;;;;;;4914653;29;20131;-76
2022/08/20 01:51:51;;;;;;;3.08;0.70;;;15.00;92.20;;;;;;4910874;29;20028;-75
2022/08/20 01:54:20;;;;;;;2.72;0.70;;;15.10;92.10;;;;;;4912473;29;20036;-76
2022/08/20 01:57:13;;;;;;;3.28;0.60;;;15.20;92.10;;;;;;4912991;29;20109;-77
2022/08/20 01:59:40;;;;;;;2.60;1.05;;;15.20;92.10;;;;;;4914880;29;20038;-75
2022/08/20 02:02:10;;;;;;;3.53;0.60;;;15.40;92.30;;;;;;4906906;29;20032;-77
2022/08/20 02:04:39;;;;;;;2.35;0.60;;;15.50;92.10;;;;;;4895962;29;20032;-76
2022/08/20 02:07:12;;;;;;;2.63;0.52;;;15.60;92.10;;;;;;4900944;29;20451;-76
2022/08/20 02:09:40;;;;;;;6.00;0.40;;;15.70;91.50;;;;;;4914841;29;20064;-76
2022/08/20 02:12:09;;;;;;;1.85;0.50;;;15.80;91.50;;;;;;4914457;29;20039;-77
2022/08/20 02:14:45;;;;;;;1.38;0.47;;;15.90;91.30;;;;;;4917504;29;20036;-76
2022/08/20 02:17:13;;;;;;;2.70;0.75;;;15.90;91.20;;;;;;4916937;29;20332;-76
2022/08/20 02:19:50;;;;;;;0.98;0.60;;;15.90;90.90;;;;;;4918417;29;20043;-77
2022/08/20 02:22:28;;;;;;;2.67;0.70;;;16.00;91.00;;;;;;4916276;29;20094;-76
2022/08/20 02:24:56;;;;;;;2.50;1.25;;;16.00;91.30;;;;;;4918419;29;20040;-77
2022/08/20 02:27:23;;;;;;;1.90;0.52;;;16.10;91.50;;;;;;4916828;29;20036;-77
2022/08/20 02:29:52;;;;;;;2.33;0.38;;;16.10;91.10;;;;;;4918282;29;20032;-76
2022/08/20 02:32:20;;;;;;;2.33;0.63;;;16.10;90.70;;;;;;4917131;29;20118;-77
2022/08/20 02:34:48;;;;;;;1.60;0.82;;;16.10;90.40;;;;;;4918064;29;20038;-76
2022/08/20 02:37:17;;;;;;;4.55;0.55;;;16.20;90.60;;;;;;4910931;29;20077;-77
2022/08/20 02:39:46;;;;;;;1.45;0.73;;;16.30;90.30;;;;;;4899426;29;20032;-76
2022/08/20 02:42:13;;;;;;;3.30;0.57;;;16.30;90.00;;;;;;4904383;29;20036;-75
2022/08/20 02:44:41;;;;;;;1.95;0.40;;;16.40;90.40;;;;;;4918631;29;20143;-76
2022/08/20 02:47:09;;;;;;;2.72;0.35;;;16.40;90.10;;;;;;4916366;29;20038;-76
2022/08/20 02:49:36;;;;;;;1.60;0.10;;;16.50;89.90;;;;;;4918303;29;20062;-76
2022/08/20 02:52:04;;;;;;;1.08;0.40;;;16.60;89.50;;;;;;4915796;29;20052;-76
2022/08/20 02:54:31;;;;;;;0.75;0.30;;;16.70;89.50;;;;;;4918057;29;20032;-77
2022/08/20 02:56:58;;;;;;;1.52;0.40;;;16.80;89.00;;;;;;4900140;29;20063;-76
2022/08/20 02:59:26;;;;;;;0.60;0.47;;;16.80;88.00;;;;;;4917873;29;20032;-77
2022/08/20 03:01:53;;;;;;;1.98;0.50;;;16.90;89.00;;;;;;4913821;29;20028;-77
2022/08/20 03:04:20;;;;;;;0.43;0.20;;;17.00;88.50;;;;;;4899572;29;20072;-77
2022/08/20 03:06:48;;;;;;;2.78;0.70;;;17.00;88.70;;;;;;4901207;29;20024;-78
2022/08/20 03:09:15;;;;;;;2.30;0.40;;;17.10;88.80;;;;;;4917476;29;20060;-76
2022/08/20 03:11:43;;;;;;;3.13;0.32;;;17.20;88.00;;;;;;4916136;29;20024;-76
2022/08/20 03:14:11;;;;;;;0.95;0.75;;;17.20;88.80;;;;;;4917267;29;20032;-78
2022/08/20 03:16:38;;;;;;;2.88;0.52;;;17.30;89.20;;;;;;4915954;29;22637;-77
2022/08/20 03:19:07;;;;;;;3.67;0.95;;;17.30;88.00;;;;;;4918122;29;20128;-77
2022/08/20 03:21:34;;;;;;;1.88;0.85;;;17.40;87.90;;;;;;4914800;29;20028;-77
2022/08/20 03:24:02;;;;;;;2.08;0.70;;;17.50;87.80;;;;;;4904189;29;20051;-77
2022/08/20 03:26:29;;;;;;;2.65;1.08;;;17.50;87.60;;;;;;4898558;29;20025;-77
2022/08/20 03:28:56;;;;;;;4.70;0.93;;;17.50;87.50;;;;;;4898967;29;20032;-76
2022/08/20 03:31:24;;;;;;;1.73;0.32;;;17.60;88.10;;;;;;4898017;29;20397;-76
2022/08/20 03:33:51;;;;;;;1.92;0.65;;;17.70;88.10;;;;;;4916725;29;20096;-76
2022/08/20 03:36:19;;;;;;;2.53;0.50;;;17.80;87.80;;;;;;4916815;29;20423;-77
2022/08/20 03:38:46;;;;;;;5.03;0.43;;;17.90;87.30;;;;;;4916718;29;20440;-76
2022/08/20 03:41:14;;;;;;;2.33;0.40;;;17.90;87.50;;;;;;4917308;29;20364;-78
2022/08/20 03:43:41;;;;;;;1.58;0.25;;;17.90;87.50;;;;;;4913584;29;20039;-77
2022/08/20 03:46:09;;;;;;;2.80;0.40;;;17.90;88.10;;;;;;4916917;29;20024;-77
2022/08/20 03:48:37;;;;;;;3.15;0.45;;;17.80;88.00;;;;;;4915566;29;20028;-74
2022/08/20 03:51:05;;;;;;;1.55;0.38;;;17.80;88.20;;;;;;4916783;29;20029;-74
2022/08/20 03:53:33;;;;;;;3.13;0.52;;;17.80;87.90;;;;;;4903766;29;20400;-74
2022/08/20 03:56:04;;;;;;;1.65;0.35;;;17.90;88.30;;;;;;4916153;29;20035;-74
2022/08/20 03:58:32;;;;;;;2.13;0.60;;;18.00;88.30;;;;;;4916590;29;20036;-74
2022/08/20 04:01:01;;;;;;;2.47;0.40;;;18.30;89.50;;;;;;4912419;29;20063;-74
2022/08/20 04:03:28;;;;;;;3.45;0.45;;;18.50;88.20;;;;;;4914234;29;20044;-74
2022/08/20 04:05:56;;;;;;;3.20;0.55;;;18.50;86.90;;;;;;4916107;29;20035;-74
2022/08/20 04:08:28;;;;;;;1.30;0.50;;;18.40;88.30;;;;;;4914876;29;20127;-74
2022/08/20 04:10:59;;;;;;;1.88;0.40;;;18.20;87.70;;;;;;4920437;29;20502;-75
2022/08/20 04:13:28;;;;;;;2.08;0.40;;;18.10;88.00;;;;;;4913821;29;20064;-74
2022/08/20 04:15:56;;;;;;;2.55;0.50;;;17.90;88.10;;;;;;4915939;29;20119;-75
2022/08/20 04:18:25;;;;;;;1.33;0.50;;;17.80;88.30;;;;;;4883368;29;20032;-74
2022/08/20 04:20:54;;;;;;;1.77;0.50;;;17.80;89.40;;;;;;4896998;29;20052;-75
2022/08/20 04:23:22;;;;;;;1.65;0.50;;;17.80;89.40;;;;;;4911779;29;20076;-75
2022/08/20 04:25:50;;;;;;;2.58;0.82;;;17.80;88.80;;;;;;4916403;29;20447;-75
2022/08/20 04:28:29;;;;;;;2.63;0.43;;;17.90;88.80;;;;;;4914001;29;20032;-74
2022/08/20 04:30:59;;;;;;;1.45;0.50;;;17.90;89.90;;;;;;4899718;29;20043;-75
2022/08/20 04:33:29;;;;;;;2.65;0.30;;;18.00;89.60;;;;;;4912611;29;20036;-74
2022/08/20 04:36:01;;;;;;;1.70;0.47;;;18.00;90.00;;;;;;4915737;29;20036;-75
2022/08/20 04:38:29;;;;;;;3.17;0.68;;;18.10;89.30;;;;;;4914132;29;20131;-74
2022/08/20 04:40:57;;;;;;;2.75;0.60;;;18.20;88.80;;;;;;4915554;29;20024;-75
2022/08/20 04:43:32;;;;;;;1.30;0.30;;;18.20;88.70;;;;;;4913969;29;20043;-75
2022/08/20 04:46:08;;;;;;;1.00;0.50;;;18.10;89.50;;;;;;4913965;29;20039;-75
2022/08/20 04:48:38;;;;;;;3.30;0.38;;;18.00;90.00;;;;;;4913937;29;20110;-75
2022/08/20 04:51:06;;;;;;;0.93;0.40;;;17.90;90.10;;;;;;4915315;29;20032;-74
2022/08/20 04:53:34;;;;;;;1.45;0.38;;;17.90;90.30;;;;;;4913227;29;20028;-74
2022/08/20 04:56:02;;;;;;;1.70;0.85;;;18.00;89.90;;;;;;4915355;29;20452;-74
2022/08/20 04:58:33;;;;;;;0.85;0.30;;;18.10;89.50;;;;;;4913862;29;20040;-75
2022/08/20 05:01:04;;;;;;;1.85;0.90;;;18.10;90.00;;;;;;4916066;29;20032;-74
2022/08/20 05:03:32;;;;;;;1.77;0.28;;;18.30;89.60;;;;;;4914068;29;20044;-74
2022/08/20 05:06:00;;;;;;;2.80;0.50;;;18.30;90.00;;;;;;4915429;29;20403;-74
2022/08/20 05:08:29;;;;;;;2.53;0.52;;;18.50;89.30;;;;;;4913555;29;20040;-74
2022/08/20 05:10:57;;;;;;;5.47;0.60;;;18.70;89.10;;;;;;4915061;29;20024;-74
2022/08/20 05:13:26;;;;;;;2.13;0.70;;;18.80;89.20;;;;;;4910305;29;20047;-75
2022/08/20 05:15:54;;;;;;;5.07;0.40;;;18.80;88.50;;;;;;4914988;29;20067;-73
2022/08/20 05:18:25;;;;;;;6.43;1.80;;;18.80;88.00;;;;;;4897217;29;20064;-73
2022/08/20 05:20:53;;;;;;;1.17;0.60;;;18.70;88.30;;;;;;4915714;29;20127;-75
2022/08/20 05:23:22;;;;;;;2.90;0.80;;;18.70;89.10;;;;;;4913728;29;20028;-75
2022/08/20 05:25:53;;;;;;;2.38;0.60;;;18.80;89.00;;;;;;4915394;29;20036;-75
2022/08/20 05:28:25;;;;;;;1.38;0.30;;;18.80;88.30;;;;;;4901380;29;20037;-75
2022/08/20 05:30:53;;;;;;;5.82;1.20;;;18.60;89.40;;;;;;4895513;29;20033;-74
2022/08/20 05:33:22;;;;;;;1.50;0.52;;;18.40;89.60;;;;;;4910872;29;20083;-76
2022/08/20 05:35:51;;;;;;;3.50;0.95;;;18.10;89.90;;;;;;4896648;29;20028;-75
2022/08/20 05:38:25;;;;;;;1.27;0.30;;;17.90;90.40;;;;;;4909651;29;20111;-74
2022/08/20 05:40:52;;;;;;;1.55;0.45;;;17.80;90.70;;;;;;4915345;29;20040;-74
2022/08/20 05:43:20;;;;;;;1.83;0.40;;;17.70;90.50;;;;;;4913122;29;20040;-75
2022/08/20 05:45:51;;;;;;;1.20;0.40;;;17.90;91.10;;;;;;4915024;29;20083;-75
2022/08/20 05:48:21;;;;;;;2.50;0.75;;;18.10;90.30;;;;;;4913157;29;20127;-74
2022/08/20 05:50:50;;;;;;;3.00;1.05;;;18.40;90.10;;;;;;4915664;29;20111;-74
2022/08/20 05:53:20;;;;;;;3.40;1.50;;;18.60;90.10;;;;;;4912867;29;20049;-74
2022/08/20 05:55:48;;;;;;;1.58;0.32;;;18.70;90.40;;;;;;4914512;29;20039;-74
2022/08/20 05:58:22;;;;;;;4.05;0.45;;;18.80;90.10;;;;;;4912664;29;20529;-74
2022/08/20 06:00:51;;;;;;;1.10;0.55;;;18.90;90.20;;;;;;4914200;29;20075;-75
2022/08/20 06:06:04;;;;;;;2.78;0.60;;;19.00;89.50;;;;;;4913087;29;20043;-74
2022/08/20 06:08:32;;;;;;;1.83;0.70;;;19.10;89.70;;;;;;4912775;29;20115;-74
2022/08/20 06:10:59;;;;;;;1.92;0.60;;;19.20;90.80;;;;;;4914451;29;20036;-74
2022/08/20 06:13:27;;;;;;;1.63;0.88;;;19.30;91.10;;;;;;4912143;29;20036;-74
2022/08/20 06:15:56;;;;;;;2.42;0.93;;;19.40;90.30;;;;;;4914227;29;20036;-73
2022/08/20 06:18:24;;;;;;;0.65;0.10;;;19.40;88.20;;;;;;4909422;29;20035;-73
2022/08/20 06:20:52;;;;;;;4.75;0.65;;;19.50;90.00;;;;;;4914438;29;20025;-74
2022/08/20 06:23:20;;;;;;;0.63;0.10;;;19.50;89.00;;;;;;4912697;29;20059;-74
2022/08/20 06:25:49;;;;;;;0.57;0.10;;;19.50;89.00;;;;;;4914512;29;20042;-75
2022/08/20 06:28:17;;;;;;;0.43;0.00;;;19.50;89.40;;;;;;4911899;29;20031;-74
2022/08/20 06:30:45;;;;;;;0.43;0.30;;;19.40;89.40;;;;;;4914010;29;20064;-73
2022/08/20 06:33:12;;;;;;;0.13;0.08;;;19.30;89.70;;;;;;4911986;29;20039;-74
2022/08/20 06:35:40;;;;;;;1.38;0.10;;;19.20;89.30;;;;;;4914295;29;20035;-74
2022/08/20 06:38:11;;;;;;;0.30;0.05;;;19.00;89.50;;;;;;4895693;29;20047;-75
2022/08/20 06:40:39;;;;;;;0.68;0.25;;;18.70;90.10;;;;;;4914471;29;20372;-73
2022/08/20 06:43:07;;;;;;;0.30;0.20;;;18.60;90.20;;;;;;4913168;29;20039;-75
2022/08/20 06:45:36;;;;;;;0.20;0.10;;;18.20;90.70;;;;;;4914426;29;20028;-75
2022/08/20 06:48:08;;;;;;;0.93;0.22;;;18.10;90.80;;;;;;4899064;29;20036;-74
2022/08/20 06:50:40;;;;;;;0.40;0.20;;;18.00;90.90;;;;;;4895158;29;20044;-75
2022/08/20 06:53:08;;;;;;;0.90;0.20;;;18.00;91.20;;;;;;4907718;29;20031;-74
2022/08/20 06:55:39;;;;;;;0.40;0.30;;;17.90;91.20;;;;;;4914096;29;20483;-75
2022/08/20 06:58:09;;;;;;;0.25;0.10;;;17.90;91.40;;;;;;4914942;29;20458;-75
2022/08/20 07:00:39;;;;;;;0.20;0.10;;;17.90;91.70;;;;;;4918204;29;20052;-75
2022/08/20 07:03:07;;;;;;;0.50;0.10;;;17.80;91.60;;;;;;4899092;29;20404;-74
2022/08/20 07:05:39;;;;;;;1.35;0.45;;;17.70;91.80;;;;;;4917220;29;20087;-75
2022/08/20 07:08:09;;;;;;;0.47;0.45;;;17.50;92.10;;;;;;4914905;29;20032;-75
2022/08/20 07:10:37;;;;;;;0.30;0.20;;;17.40;91.90;;;;;;4917080;29;20051;-74
2022/08/20 07:13:05;;;;;;;0.40;0.30;;;17.20;91.90;;;;;;4911572;29;20126;-75
2022/08/20 07:15:32;;;;;;;0.35;0.30;;;17.00;92.20;;;;;;4917516;29;20534;-76
2022/08/20 07:18:03;;;;;;;1.20;0.10;;;16.80;92.30;;;;;;4920791;29;20024;-75
2022/08/20 07:20:32;;;;;;;0.03;0.03;;;16.60;92.30;;;;;;4917243;29;20039;-74
2022/08/20 07:23:00;;;;;;;0.88;0.10;;;16.50;92.50;;;;;;4915700;29;20040;-75
2022/08/20 07:25:28;;;;;;;0.43;0.17;;;16.30;93.00;;;;;;4917197;29;20051;-75
2022/08/20 07:28:01;;;;;;;0.28;0.20;;;16.20;93.00;;;;;;4898556;29;20038;-75
2022/08/20 07:33:15;;;;;;;0.68;0.30;;;15.90;93.50;;;;;;4916148;29;20091;-74
2022/08/20 07:35:43;;;;;;;1.08;0.40;;;15.80;93.70;;;;;;4916921;29;20114;-75
2022/08/20 07:38:25;;;;;;;0.60;0.40;;;15.60;93.80;;;;;;4915282;29;20438;-76
2022/08/20 07:41:05;;;;;;;0.77;0.47;;;15.60;94.10;;;;;;4916844;29;20028;-75
2022/08/20 07:43:33;;;;;;;1.40;0.40;;;15.50;94.30;;;;;;4915208;29;20067;-74
2022/08/20 07:46:07;;;;;;;2.45;0.30;;;15.30;94.60;;;;;;4916497;29;20119;-75
2022/08/20 07:48:40;;;;;;;0.60;0.30;;;15.10;94.70;;;;;;4915101;29;20083;-76
2022/08/20 07:51:11;;;;;;;2.15;0.25;;;15.00;94.90;;;;;;4917439;29;20047;-76
2022/08/20 07:53:40;;;;;;;0.40;0.25;;;15.00;95.10;;;;;;4915314;29;20036;-76
2022/08/20 07:56:14;;;;;;;0.45;0.20;;;14.90;95.20;;;;;;4917209;29;20020;-76
2022/08/20 07:58:48;;;;;;;0.43;0.28;;;14.90;95.00;;;;;;4915216;29;20039;-75
2022/08/20 08:01:18;;;;;;;0.57;0.20;;;15.00;94.90;;;;;;4917015;29;20542;-77
2022/08/20 08:03:46;;;;;;;0.52;0.10;;;14.90;94.90;;;;;;4914664;29;20146;-74
2022/08/20 08:06:13;;;;;;;0.30;0.20;;;14.90;94.80;;;;;;4916892;29;20028;-74
2022/08/20 08:08:42;;;;;;;0.20;0.20;;;15.00;94.70;;;;;;4914574;29;20074;-75
2022/08/20 08:11:10;;;;;;;0.60;0.28;;;15.00;94.70;;;;;;4916851;29;20039;-76
2022/08/20 08:13:41;;;;;;;0.77;0.30;;;15.00;94.60;;;;;;4910375;29;20039;-74
2022/08/20 08:16:09;;;;;;;0.30;0.20;;;15.00;94.50;;;;;;4915494;29;20064;-76
2022/08/20 08:19:00;;;;;;;0.98;0.30;;;15.10;94.60;;;;;;4914951;29;20032;-75
2022/08/20 08:21:28;;;;;;;0.35;0.10;;;15.10;94.50;;;;;;4914786;29;20126;-75
2022/08/20 08:23:57;;;;;;;0.30;0.10;;;15.10;94.60;;;;;;4903219;29;20436;-74
2022/08/20 08:26:27;;;;;;;0.88;0.40;;;15.10;94.50;;;;;;4915116;29;20033;-76
2022/08/20 08:28:54;;;;;;;0.45;0.20;;;15.10;94.60;;;;;;4897247;29;20138;-74
2022/08/20 08:31:24;;;;;;;1.60;0.40;;;15.00;94.70;;;;;;4896495;29;20033;-75
2022/08/20 08:33:51;;;;;;;0.68;0.20;;;15.10;94.70;;;;;;4915742;29;20043;-75
2022/08/20 08:36:19;;;;;;;0.43;0.20;;;15.00;94.70;;;;;;4915313;29;20035;-74
2022/08/20 08:38:46;;;;;;;1.50;0.43;;;15.00;94.70;;;;;;4915339;29;20151;-74
2022/08/20 08:41:30;;;;;;;0.17;0.10;;;15.00;94.70;;;;;;4916702;29;20502;-74
2022/08/20 08:44:11;;;;;;;0.20;0.13;;;15.00;94.70;;;;;;4896623;29;20048;-75
2022/08/20 08:46:42;;;;;;;0.20;0.20;;;14.90;94.70;;;;;;4898036;29;20033;-75
2022/08/20 08:49:16;;;;;;;0.68;0.25;;;14.80;94.90;;;;;;4915863;29;20119;-75
2022/08/20 08:51:49;;;;;;;0.10;0.10;;;14.80;95.00;;;;;;4913440;29;20122;-75
2022/08/20 08:54:20;;;;;;;2.67;0.30;;;14.70;95.20;;;;;;4915517;29;20143;-75
2022/08/20 08:56:48;;;;;;;3.03;0.32;;;14.50;95.40;;;;;;4914048;29;20051;-74
2022/08/20 08:59:16;;;;;;;0.65;0.20;;;14.40;95.50;;;;;;4915792;29;20032;-75
2022/08/20 09:01:49;;;;;;;0.10;0.10;;;14.30;95.60;;;;;;4913757;29;20547;-75
2022/08/20 09:04:20;;;;;;;0.10;0.10;;;14.20;95.80;;;;;;4915119;29;20043;-75
2022/08/20 09:06:54;;;;;;;0.80;0.30;;;14.10;95.90;;;;;;4913914;29;20096;-76
2022/08/20 09:09:29;;;;;;;1.77;0.25;;;14.10;96.10;;;;;;4903478;29;20136;-75
2022/08/20 09:12:10;;;;;;;1.15;0.40;;;14.00;96.10;;;;;;4899866;29;20383;-76
2022/08/20 09:14:38;;;;;;;0.50;0.30;;;13.90;96.20;;;;;;4915562;29;20103;-76
2022/08/20 09:17:06;;;;;;;1.08;0.40;;;13.90;96.70;;;;;;4909800;29;20044;-75
2022/08/20 09:19:34;;;;;;;0.63;0.30;;;13.80;96.60;;;;;;4914863;29;20146;-75
2022/08/20 09:22:08;;;;;;;0.80;0.40;;;13.70;96.70;;;;;;4913559;29;20079;-74
2022/08/20 09:24:36;;;;;;;1.92;0.40;;;13.70;96.80;;;;;;4915003;29;20119;-75
2022/08/20 09:27:04;;;;;;;1.88;0.50;;;13.60;96.80;;;;;;4909433;29;20043;-76
2022/08/20 09:29:32;;;;;;;2.33;0.65;;;13.50;97.10;;;;;;4896013;29;20101;-75
2022/08/20 09:32:10;;;;;;;1.63;0.55;;;13.30;97.30;;;;;;4900063;29;20116;-75
2022/08/20 09:34:47;;;;;;;1.73;0.50;;;13.20;97.50;;;;;;4915076;29;20084;-75
2022/08/20 09:37:15;;;;;;;0.52;0.40;;;13.10;97.80;;;;;;4913109;29;20479;-74
2022/08/20 09:39:42;;;;;;;0.95;0.50;;;13.00;97.90;;;;;;4915275;29;20044;-76
2022/08/20 09:42:31;;;;;;;1.25;0.60;;;12.80;98.10;;;;;;4912728;29;20356;-74
2022/08/20 09:45:00;;;;;;;2.00;0.60;;;12.80;98.20;;;;;;4914674;29;20050;-76
2022/08/20 09:47:28;;;;;;;0.82;0.55;;;12.70;98.40;;;;;;4912966;29;20028;-75
2022/08/20 09:49:55;;;;;;;1.35;0.75;;;12.60;98.60;;;;;;4915219;29;20036;-74
2022/08/20 09:52:24;;;;;;;1.20;0.93;;;12.60;99.20;;;;;;4912819;29;20091;-74
2022/08/20 09:54:58;;;;;;;2.10;1.00;;;12.50;99.20;;;;;;4914823;29;20025;-74
2022/08/20 09:57:27;;;;;;;2.65;1.17;;;12.50;99.10;;;;;;4913274;29;20036;-74
2022/08/20 10:00:01;;;;;;;2.40;1.38;;;12.40;99.20;;;;;;4914427;29;20056;-75
2022/08/20 10:02:28;;;;;;;2.60;1.38;;;12.30;99.30;;;;;;4912998;29;20046;-76
2022/08/20 10:04:56;;;;;;;3.38;1.15;;;12.30;99.40;;;;;;4914623;29;20067;-74
2022/08/20 10:07:23;;;;;;;3.53;1.30;;;12.20;99.70;;;;;;4913349;29;20100;-74
2022/08/20 10:09:51;;;;;;;2.30;1.48;;;12.20;99.80;;;;;;4896213;29;20067;-75
2022/08/20 10:12:18;;;;;;;1.42;0.73;;;12.10;99.90;;;;;;4912214;29;20120;-75
2022/08/20 10:14:46;;;;;;;1.85;0.95;;;12.00;99.90;;;;;;4914317;29;21538;-75
2022/08/20 10:17:13;;;;;;;1.40;1.00;;;11.90;99.90;;;;;;4910355;29;20025;-75
2022/08/20 10:19:41;;;;;;;1.85;0.98;;;11.90;99.90;;;;;;4913436;29;20088;-74
2022/08/20 10:22:08;;;;;;;1.42;1.08;;;11.70;99.90;;;;;;4912791;29;20043;-74
2022/08/20 10:24:35;;;;;;;1.92;1.30;;;11.70;99.90;;;;;;4914874;29;20064;-74
2022/08/20 10:27:03;;;;;;;2.65;1.35;;;11.50;99.90;;;;;;4912738;29;20423;-75
2022/08/20 10:29:30;;;;;;;3.25;1.40;;;11.40;99.90;;;;;;4914505;29;20127;-75
2022/08/20 10:32:10;;;;;;;3.47;2.15;;;11.40;99.90;;;;;;4913498;29;20080;-75
2022/08/20 10:34:39;;;;;;;4.15;2.65;;;11.30;99.90;;;;;;4918208;29;20451;-75
2022/08/20 10:37:07;;;;;;;5.47;3.25;;;11.30;99.90;;;;;;4916646;29;20034;-75
2022/08/20 10:39:34;;;;;;;5.43;3.33;;;11.20;99.90;;;;;;4918735;29;20024;-76
2022/08/20 10:42:02;;;;;;;5.43;3.42;;;11.10;99.90;;;;;;4910955;29;20028;-76
2022/08/20 10:44:29;;;;;;;3.53;2.20;;;11.10;99.90;;;;;;4917627;29;20032;-76
2022/08/20 10:46:57;;;;;;;6.63;2.95;;;11.00;99.90;;;;;;4915850;29;20024;-76
2022/08/20 10:49:24;;;;;;;4.82;3.03;;;11.00;99.90;;;;;;4917826;29;20036;-75
2022/08/20 10:51:51;;;;;;;5.40;2.30;;;11.00;99.90;;;;;;4916318;29;20028;-77
2022/08/20 10:54:19;;;;;;;4.13;2.60;;;10.90;99.90;;;;;;4917486;29;20035;-75
2022/08/20 10:56:46;;;;;;;3.88;2.78;;;10.90;99.90;;;;;;4903356;29;20348;-74
2022/08/20 10:59:13;;;;;;;5.47;3.13;;;10.90;99.90;;;;;;4917624;29;20135;-75
2022/08/20 11:01:41;;;;;;;8.02;3.30;;;10.90;99.90;;;;;;4915859;29;20036;-75
2022/08/20 11:04:08;;;;;;;4.00;3.15;;;10.80;99.90;;;;;;4917410;29;20035;-75
2022/08/20 11:06:36;;;;;;;4.50;2.53;;;10.90;99.90;;;;;;4916072;29;20119;-75
2022/08/20 11:09:03;;;;;;;3.78;3.28;;;10.90;99.90;;;;;;4917549;29;20110;-75
2022/08/20 11:11:30;;;;;;;5.45;3.40;;;10.90;99.90;;;;;;4915987;29;20083;-75
2022/08/20 11:13:58;;;;;;;3.47;3.08;;;10.90;99.90;;;;;;4914273;29;20099;-75
2022/08/20 11:16:25;;;;;;;3.97;2.40;;;10.90;99.90;;;;;;4915776;29;20024;-74
2022/08/20 11:18:52;;;;;;;1.73;1.63;;;10.90;99.90;;;;;;4917094;29;20124;-74
2022/08/20 11:21:20;;;;;;;1.58;1.20;;;10.90;99.90;;;;;;4916966;29;20029;-76
2022/08/20 11:23:48;;;;;;;2.60;1.60;;;10.90;99.90;;;;;;4913847;29;20036;-75
2022/08/20 11:26:24;;;;;;;5.22;3.67;;;10.90;99.90;;;;;;4917254;29;20421;-76
2022/08/20 11:28:52;;;;;;;4.45;2.60;;;10.90;99.90;;;;;;4917070;29;20549;-74
2022/08/20 11:31:19;;;;;;;2.20;1.65;;;10.90;99.90;;;;;;4916974;29;20387;-75
2022/08/20 11:33:46;;;;;;;2.38;1.48;;;10.90;99.90;;;;;;4916283;29;20032;-75
2022/08/20 11:36:14;;;;;;;2.20;1.42;;;10.90;99.90;;;;;;4916995;29;20028;-76
2022/08/20 11:38:41;;;;;;;2.83;2.38;;;10.90;99.90;;;;;;4915586;29;20479;-76
2022/08/20 11:41:09;;;;;;;2.95;1.95;;;11.00;99.90;;;;;;4917202;29;20115;-75
2022/08/20 11:43:36;;;;;;;5.80;2.35;;;10.90;99.90;;;;;;4914816;29;20067;-75
2022/08/20 11:46:03;;;;;;;2.90;2.25;;;10.90;99.90;;;;;;4917036;29;20107;-75
2022/08/20 11:48:31;;;;;;;4.03;2.17;;;10.80;99.90;;;;;;4915582;29;20036;-75
2022/08/20 11:50:58;;;;;;;5.32;3.15;;;10.80;99.90;;;;;;4917449;29;20550;-75
2022/08/20 11:53:26;;;;;;;4.63;1.75;;;10.80;99.90;;;;;;4915385;29;20040;-74
2022/08/20 11:55:53;;;;;;;2.70;1.77;;;10.80;99.90;;;;;;4913029;29;20479;-75
2022/08/20 11:58:21;;;;;;;5.75;3.20;;;10.80;99.90;;;;;;4912143;29;20539;-75
2022/08/20 12:00:48;;;;;;;4.53;2.90;;;10.80;99.90;;;;;;4916224;29;20058;-75
2022/08/20 12:03:16;;;;;;;5.47;3.28;;;10.90;99.90;;;;;;4914092;29;20056;-75
2022/08/20 12:05:45;;;;;;;8.18;5.47;;;10.90;99.90;;;;;;4923402;29;20028;-76
2022/08/20 12:08:14;;;;;;;11.45;6.07;;;10.90;99.90;;;;;;4913732;29;20095;-76
2022/08/20 12:10:41;;;;;;;10.55;6.25;;;10.90;99.90;;;;;;4916454;29;20095;-76
2022/08/20 12:13:09;;;;;;;5.93;3.50;;;10.90;99.90;;;;;;4910831;29;20028;-75
2022/08/20 12:15:37;;;;;;;3.92;1.85;;;10.90;99.90;;;;;;4916363;29;20032;-75
2022/08/20 12:18:08;;;;;;;1.90;1.15;;;10.90;99.90;;;;;;4914246;29;20128;-75
2022/08/20 12:20:37;;;;;;;1.40;0.75;;;11.00;99.90;;;;;;4916264;29;20514;-74
2022/08/20 12:23:04;;;;;;;0.60;0.30;;;11.00;99.90;;;;;;4914777;29;20146;-75
2022/08/20 12:25:32;;;;;;;0.73;0.70;;;11.10;99.90;;;;;;4916107;29;20036;-75
2022/08/20 12:27:59;;;;;;;1.17;0.75;;;11.10;99.90;;;;;;4914191;29;20063;-75
2022/08/20 12:30:27;;;;;;;2.03;0.55;;;11.10;99.90;;;;;;4915642;29;20503;-75
2022/08/20 12:32:54;;;;;;;3.10;2.20;;;11.20;99.90;;;;;;4914341;29;20119;-74
2022/08/20 12:35:22;;;;;;;3.15;2.05;;;11.20;99.90;;;;;;4916148;29;20088;-75
2022/08/20 12:37:50;;;;;;;6.88;3.22;;;11.30;99.90;;;;;;4914271;29;20486;-75
2022/08/20 12:40:21;;;;;;;2.33;1.90;;;11.40;99.90;;;;;;4916214;29;20028;-74
2022/08/20 12:42:49;;;;;;;3.40;2.30;;;11.50;99.90;;;;;;4914275;29;20421;-73
2022/08/20 12:45:17;;;;;;;6.30;4.38;;;11.50;99.90;;;;;;4915530;29;20569;-74
2022/08/20 12:47:48;;;;;;;6.90;2.95;;;11.60;99.90;;;;;;4914181;29;20036;-75
2022/08/20 12:50:19;;;;;;;3.13;1.42;;;11.60;99.90;;;;;;4915751;29;20028;-75
2022/08/20 12:52:47;;;;;;;2.80;1.50;;;11.60;99.90;;;;;;4913835;29;20047;-76
2022/08/20 12:55:16;;;;;;;5.28;3.10;;;11.60;99.90;;;;;;4914750;29;20083;-76
2022/08/20 12:57:48;;;;;;;7.07;3.75;;;11.70;99.90;;;;;;4913266;29;20479;-75
2022/08/20 13:00:37;;;;;;;4.85;3.03;;;11.70;99.90;;;;;;4915073;29;20210;-75
2022/08/20 13:03:06;;;;;;;6.28;3.95;;;11.80;99.90;;;;;;4910839;29;20036;-76
2022/08/20 13:05:35;;;;;;;8.02;4.97;;;11.80;99.90;;;;;;4902378;29;20119;-74